createdAt,value
2023-05-10T00:00:58.625Z,2142.00
2023-05-10T00:01:58.752Z,2144.00
2023-05-10T00:02:58.799Z,2161.00
2023-05-10T00:03:58.915Z,2134.00
2023-05-10T00:04:58.866Z,2144.00
2023-05-10T00:05:59.070Z,2129.00
2023-05-10T00:06:59.013Z,2141.00
2023-05-10T00:07:59.037Z,2142.00
2023-05-10T00:08:59.117Z,2150.00
2023-05-10T00:09:59.162Z,2130.00
2023-05-10T00:10:59.217Z,2125.00
2023-05-10T00:11:59.410Z,2135.00
2023-05-10T00:12:59.387Z,2107.00
2023-05-10T00:13:59.421Z,2126.00
2023-05-10T00:14:59.466Z,2122.00
2023-05-10T00:15:59.660Z,2127.00
2023-05-10T00:16:59.605Z,2112.00
2023-05-10T00:17:59.698Z,2119.00
2023-05-10T00:18:59.708Z,2127.00
2023-05-10T00:19:59.756Z,2128.00
2023-05-10T00:20:59.841Z,2134.00
2023-05-10T00:22:00.006Z,2121.00
2023-05-10T00:23:00.024Z,2122.00
2023-05-10T00:24:00.042Z,2109.00
2023-05-10T00:25:00.089Z,2124.00
2023-05-10T00:26:00.166Z,2129.00
2023-05-10T00:27:00.242Z,2125.00
2023-05-10T00:28:00.403Z,2113.00
2023-05-10T00:29:00.345Z,2127.00
2023-05-10T00:30:00.394Z,2122.00
2023-05-10T00:31:00.478Z,2131.00
2023-05-10T00:32:00.537Z,2124.00
2023-05-10T00:33:00.590Z,2111.00
2023-05-10T00:34:00.647Z,2125.00
2023-05-10T00:35:00.691Z,2128.00
2023-05-10T00:36:00.862Z,2134.00
2023-05-10T00:37:00.994Z,2138.00
2023-05-10T00:38:00.863Z,2117.00
2023-05-10T00:39:00.930Z,2112.00
2023-05-10T00:40:00.984Z,2109.00
2023-05-10T00:41:01.052Z,2091.00
2023-05-10T00:42:01.121Z,2097.00
2023-05-10T00:43:01.186Z,2095.00
2023-05-10T00:44:01.257Z,2093.00
2023-05-10T00:45:01.255Z,2088.00
2023-05-10T00:46:01.372Z,2096.00
2023-05-10T00:47:01.436Z,2100.00
2023-05-10T00:48:01.458Z,2089.00
2023-05-10T00:49:01.477Z,2083.00
2023-05-10T00:50:01.531Z,2087.00
2023-05-10T00:51:01.610Z,2094.00
2023-05-10T00:52:01.656Z,2091.00
2023-05-10T00:53:01.650Z,2079.00
2023-05-10T00:54:01.688Z,2063.00
2023-05-10T00:55:01.705Z,2069.00
2023-05-10T00:56:01.725Z,2072.00
2023-05-10T00:57:01.745Z,2062.00
2023-05-10T00:58:01.784Z,2056.00
2023-05-10T00:59:01.774Z,2058.00
2023-05-10T01:00:01.800Z,2054.00
2023-05-10T01:01:01.867Z,2050.00
2023-05-10T01:02:01.877Z,2059.00
2023-05-10T01:03:02.051Z,2067.00
2023-05-10T01:04:02.047Z,2058.00
2023-05-10T01:05:01.960Z,2060.00
2023-05-10T01:06:01.945Z,2048.00
2023-05-10T01:07:01.946Z,2056.00
2023-05-10T01:08:02.002Z,2056.00
2023-05-10T01:09:02.022Z,2059.00
2023-05-10T01:10:02.210Z,2060.00
2023-05-10T01:11:02.128Z,2051.00
2023-05-10T01:12:02.204Z,2053.00
2023-05-10T01:13:02.236Z,2037.00
2023-05-10T01:14:02.285Z,2042.00
2023-05-10T01:15:02.203Z,2040.00
2023-05-10T01:16:02.351Z,2033.00
2023-05-10T01:17:02.300Z,2034.00
2023-05-10T01:18:02.262Z,2027.00
2023-05-10T01:19:02.296Z,2032.00
2023-05-10T01:20:02.379Z,2052.00
2023-05-10T01:21:02.354Z,2050.00
2023-05-10T01:22:02.409Z,2051.00
2023-05-10T01:23:02.426Z,2055.00
2023-05-10T01:24:02.449Z,2048.00
2023-05-10T01:25:02.517Z,2043.00
2023-05-10T01:26:02.539Z,2065.00
2023-05-10T01:27:02.553Z,2061.00
2023-05-10T01:28:02.582Z,2051.00
2023-05-10T01:29:02.648Z,2062.00
2023-05-10T01:30:21.746Z,2047.00
2023-05-10T01:31:03.659Z,2048.00
2023-05-10T01:32:02.639Z,2050.00
2023-05-10T01:33:02.796Z,2050.00
2023-05-10T01:34:02.657Z,2046.00
2023-05-10T01:35:02.617Z,2039.00
2023-05-10T01:36:02.642Z,2020.00
2023-05-10T01:37:02.612Z,2002.00
2023-05-10T01:38:02.604Z,2021.00
2023-05-10T01:39:02.593Z,2006.00
2023-05-10T01:40:02.582Z,2021.00
2023-05-10T01:41:02.612Z,2006.00
2023-05-10T01:42:02.720Z,1991.00
2023-05-10T01:43:02.689Z,1968.00
2023-05-10T01:44:02.698Z,1972.00
2023-05-10T01:45:02.737Z,1968.00
2023-05-10T01:46:02.779Z,1950.00
2023-05-10T01:47:02.883Z,1977.00
2023-05-10T01:48:02.860Z,1958.00
2023-05-10T01:49:02.921Z,1967.00
2023-05-10T01:50:02.921Z,1954.00
2023-05-10T01:51:02.947Z,1934.00
2023-05-10T01:52:02.961Z,1937.00
2023-05-10T01:53:02.976Z,1946.00
2023-05-10T01:54:03.141Z,1946.00
2023-05-10T01:55:03.050Z,1939.00
2023-05-10T01:56:03.080Z,1933.00
2023-05-10T01:57:03.072Z,1928.00
2023-05-10T01:58:03.098Z,1943.00
2023-05-10T01:59:03.122Z,1949.00
2023-05-10T02:00:03.174Z,1949.00
2023-05-10T02:01:03.262Z,1923.00
2023-05-10T02:02:03.241Z,1950.00
2023-05-10T02:03:03.310Z,1942.00
2023-05-10T02:04:03.305Z,1926.00
2023-05-10T02:05:03.325Z,1915.00
2023-05-10T02:06:03.360Z,1928.00
2023-05-10T02:07:03.378Z,1933.00
2023-05-10T02:08:03.407Z,1912.00
2023-05-10T02:09:03.453Z,1903.00
2023-05-10T02:10:03.480Z,1910.00
2023-05-10T02:11:03.614Z,1908.00
2023-05-10T02:12:03.559Z,1918.00
2023-05-10T02:13:03.568Z,1938.00
2023-05-10T02:14:03.552Z,1942.00
2023-05-10T02:15:03.542Z,1939.00
2023-05-10T02:16:03.551Z,1954.00
2023-05-10T02:17:03.614Z,1934.00
2023-05-10T02:18:03.632Z,1947.00
2023-05-10T02:19:03.616Z,1917.00
2023-05-10T02:20:03.579Z,1901.00
2023-05-10T02:21:03.600Z,1889.00
2023-05-10T02:22:03.683Z,1893.00
2023-05-10T02:23:03.689Z,1876.00
2023-05-10T02:24:03.728Z,1877.00
2023-05-10T02:25:03.727Z,1887.00
2023-05-10T02:26:03.764Z,1875.00
2023-05-10T02:27:03.784Z,1874.00
2023-05-10T02:28:03.823Z,1870.00
2023-05-10T02:29:03.873Z,1860.00
2023-05-10T02:30:03.914Z,1840.00
2023-05-10T02:31:03.941Z,1853.00
2023-05-10T02:32:04.005Z,1846.00
2023-05-10T02:33:04.051Z,1856.00
2023-05-10T02:34:04.041Z,1855.00
2023-05-10T02:35:04.055Z,1847.00
2023-05-10T02:36:04.118Z,1844.00
2023-05-10T02:37:04.125Z,1840.00
2023-05-10T02:38:04.126Z,1852.00
2023-05-10T02:39:04.166Z,1845.00
2023-05-10T02:40:04.225Z,1842.00
2023-05-10T02:41:04.258Z,1859.00
2023-05-10T02:42:04.195Z,1826.00
2023-05-10T02:43:04.193Z,1819.00
2023-05-10T02:44:04.221Z,1815.00
2023-05-10T02:45:04.243Z,1810.00
2023-05-10T02:46:04.273Z,1804.00
2023-05-10T02:47:04.264Z,1801.00
2023-05-10T02:48:04.297Z,1807.00
2023-05-10T02:49:04.327Z,1823.00
2023-05-10T02:50:04.387Z,1791.00
2023-05-10T02:51:04.344Z,1812.00
2023-05-10T02:52:04.351Z,1790.00
2023-05-10T02:53:04.482Z,1799.00
2023-05-10T02:54:04.393Z,1810.00
2023-05-10T02:55:04.394Z,1797.00
2023-05-10T02:56:04.411Z,1795.00
2023-05-10T02:57:04.446Z,1792.00
2023-05-10T02:58:04.465Z,1778.00
2023-05-10T02:59:04.515Z,1778.00
2023-05-10T03:00:04.536Z,1787.00
2023-05-10T03:01:04.606Z,1785.00
2023-05-10T03:02:04.613Z,1784.00
2023-05-10T03:03:04.685Z,1773.00
2023-05-10T03:04:04.747Z,1784.00
2023-05-10T03:05:04.700Z,1795.00
2023-05-10T03:06:04.728Z,1787.00
2023-05-10T03:07:04.731Z,1787.00
2023-05-10T03:08:04.724Z,1780.00
2023-05-10T03:09:04.737Z,1779.00
2023-05-10T03:10:04.751Z,1774.00
2023-05-10T03:11:04.736Z,1754.00
2023-05-10T03:12:04.783Z,1768.00
2023-05-10T03:13:04.776Z,1777.00
2023-05-10T03:14:04.726Z,1781.00
2023-05-10T03:15:04.731Z,1776.00
2023-05-10T03:16:04.830Z,1767.00
2023-05-10T03:17:04.840Z,1737.00
2023-05-10T03:18:04.793Z,1759.00
2023-05-10T03:19:04.782Z,1736.00
2023-05-10T03:20:04.790Z,1742.00
2023-05-10T03:21:04.804Z,1749.00
2023-05-10T03:22:04.847Z,1746.00
2023-05-10T03:23:04.850Z,1759.00
2023-05-10T03:24:04.836Z,1763.00
2023-05-10T03:25:04.830Z,1766.00
2023-05-10T03:26:04.935Z,1763.00
2023-05-10T03:27:04.801Z,1777.00
2023-05-10T03:28:04.796Z,1761.00
2023-05-10T03:29:04.825Z,1767.00
2023-05-10T03:30:04.791Z,1754.00
2023-05-10T03:31:04.814Z,1764.00
2023-05-10T03:32:04.826Z,1778.00
2023-05-10T03:33:04.913Z,1773.00
2023-05-10T03:34:04.937Z,1765.00
2023-05-10T03:35:04.946Z,1773.00
2023-05-10T03:36:04.992Z,1768.00
2023-05-10T03:37:05.038Z,1788.00
2023-05-10T03:38:05.071Z,1788.00
2023-05-10T03:39:05.105Z,1790.00
2023-05-10T03:40:05.098Z,1793.00
2023-05-10T03:41:05.146Z,1779.00
2023-05-10T03:42:05.107Z,1756.00
2023-05-10T03:43:05.113Z,1767.00
2023-05-10T03:44:05.100Z,1760.00
2023-05-10T03:45:05.119Z,1761.00
2023-05-10T03:46:05.121Z,1756.00
2023-05-10T03:47:05.137Z,1742.00
2023-05-10T03:48:05.147Z,1738.00
2023-05-10T03:49:05.122Z,1750.00
2023-05-10T03:50:05.128Z,1749.00
2023-05-10T03:51:05.152Z,1757.00
2023-05-10T03:52:05.294Z,1745.00
2023-05-10T03:53:05.187Z,1752.00
2023-05-10T03:54:05.203Z,1745.00
2023-05-10T03:55:05.204Z,1753.00
2023-05-10T03:56:05.198Z,1733.00
2023-05-10T03:57:05.202Z,1733.00
2023-05-10T03:58:05.216Z,1730.00
2023-05-10T03:59:05.226Z,1728.00
2023-05-10T04:00:05.251Z,1699.00
2023-05-10T04:01:05.284Z,1720.00
2023-05-10T04:02:05.398Z,1696.00
2023-05-10T04:03:05.401Z,1700.00
2023-05-10T04:04:05.460Z,1714.00
2023-05-10T04:05:05.456Z,1720.00
2023-05-10T04:06:05.496Z,1736.00
2023-05-10T04:07:05.533Z,1727.00
2023-05-10T04:08:05.554Z,1709.00
2023-05-10T04:09:05.622Z,1689.00
2023-05-10T04:10:05.648Z,1689.00
2023-05-10T04:11:05.695Z,1670.00
2023-05-10T04:12:05.749Z,1645.00
2023-05-10T04:13:05.799Z,1657.00
2023-05-10T04:14:05.825Z,1662.00
2023-05-10T04:15:05.880Z,1650.00
2023-05-10T04:16:05.925Z,1667.00
2023-05-10T04:17:06.045Z,1659.00
2023-05-10T04:18:07.993Z,1666.00
2023-05-10T04:19:06.084Z,1679.00
2023-05-10T04:20:05.951Z,1669.00
2023-05-10T04:21:06.012Z,1658.00
2023-05-10T04:22:05.962Z,1666.00
2023-05-10T04:23:05.946Z,1657.00
2023-05-10T04:24:05.930Z,1668.00
2023-05-10T04:25:05.934Z,1656.00
2023-05-10T04:26:05.907Z,1652.00
2023-05-10T04:27:05.914Z,1626.00
2023-05-10T04:28:06.012Z,1654.00
2023-05-10T04:29:05.907Z,1640.00
2023-05-10T04:30:05.900Z,1642.00
2023-05-10T04:31:05.990Z,1645.00
2023-05-10T04:32:05.880Z,1635.00
2023-05-10T04:33:05.929Z,1637.00
2023-05-10T04:34:05.922Z,1636.00
2023-05-10T04:35:05.944Z,1613.00
2023-05-10T04:36:05.848Z,1615.00
2023-05-10T04:37:05.857Z,1615.00
2023-05-10T04:38:05.843Z,1597.00
2023-05-10T04:39:05.828Z,1608.00
2023-05-10T04:40:05.823Z,1619.00
2023-05-10T04:41:05.834Z,1603.00
2023-05-10T04:42:05.821Z,1615.00
2023-05-10T04:43:05.802Z,1625.00
2023-05-10T04:44:05.927Z,1633.00
2023-05-10T04:45:05.781Z,1616.00
2023-05-10T04:46:05.886Z,1624.00
2023-05-10T04:47:05.762Z,1640.00
2023-05-10T04:48:05.815Z,1649.00
2023-05-10T04:49:05.778Z,1626.00
2023-05-10T04:50:05.761Z,1618.00
2023-05-10T04:51:05.824Z,1613.00
2023-05-10T04:52:05.732Z,1628.00
2023-05-10T04:53:05.752Z,1639.00
2023-05-10T04:54:06.802Z,1654.00
2023-05-10T04:55:05.728Z,1662.00
2023-05-10T04:56:05.717Z,1658.00
2023-05-10T04:57:05.727Z,1648.00
2023-05-10T04:58:05.712Z,1647.00
2023-05-10T04:59:05.728Z,1632.00
2023-05-10T05:00:05.703Z,1649.00
2023-05-10T05:01:05.699Z,1637.00
2023-05-10T05:02:05.823Z,1642.00
2023-05-10T05:03:05.712Z,1629.00
2023-05-10T05:04:05.662Z,1639.00
2023-05-10T05:05:05.651Z,1646.00
2023-05-10T05:06:05.649Z,1651.00
2023-05-10T05:07:05.655Z,1676.00
2023-05-10T05:08:05.629Z,1687.00
2023-05-10T05:09:05.638Z,1703.00
2023-05-10T05:10:05.621Z,1701.00
2023-05-10T05:11:05.625Z,1699.00
2023-05-10T05:12:05.631Z,1709.00
2023-05-10T05:13:05.647Z,1704.00
2023-05-10T05:14:05.629Z,1716.00
2023-05-10T05:15:07.223Z,1703.00
2023-05-10T05:16:05.602Z,1727.00
2023-05-10T05:17:05.590Z,1696.00
2023-05-10T05:18:05.614Z,1684.00
2023-05-10T05:19:05.601Z,1676.00
2023-05-10T05:20:05.568Z,1669.00
2023-05-10T05:21:05.572Z,1660.00
2023-05-10T05:22:05.557Z,1677.00
2023-05-10T05:23:05.543Z,1688.00
2023-05-10T05:24:05.721Z,1707.00
2023-05-10T05:25:05.560Z,1713.00
2023-05-10T05:26:05.510Z,1708.00
2023-05-10T05:27:05.521Z,1660.00
2023-05-10T05:28:05.516Z,1648.00
2023-05-10T05:29:05.869Z,1652.00
2023-05-10T05:30:05.490Z,1715.00
2023-05-10T05:31:05.618Z,1748.00
2023-05-10T05:32:05.525Z,1770.00
2023-05-10T05:33:05.505Z,1840.00
2023-05-10T05:34:05.479Z,1911.00
2023-05-10T05:35:05.459Z,1974.00
2023-05-10T05:36:05.670Z,2039.00
2023-05-10T05:37:05.448Z,2077.00
2023-05-10T05:38:05.427Z,2178.00
2023-05-10T05:39:05.464Z,2243.00
2023-05-10T05:40:05.592Z,2304.00
2023-05-10T05:41:05.415Z,2356.00
2023-05-10T05:42:05.446Z,2373.00
2023-05-10T05:43:05.411Z,2400.00
2023-05-10T05:44:05.386Z,2466.00
2023-05-10T05:45:05.388Z,2497.00
2023-05-10T05:46:05.443Z,2515.00
2023-05-10T05:47:05.376Z,2573.00
2023-05-10T05:48:05.399Z,2609.00
2023-05-10T05:49:05.375Z,2624.00
2023-05-10T05:50:05.357Z,2656.00
2023-05-10T05:51:07.172Z,2684.00
2023-05-10T05:52:05.354Z,2888.00
2023-05-10T05:53:05.343Z,2978.00
2023-05-10T05:54:05.322Z,3278.00
2023-05-10T05:55:05.331Z,3498.00
2023-05-10T05:56:05.346Z,3223.00
2023-05-10T05:57:05.351Z,3144.00
2023-05-10T05:58:05.316Z,3042.00
2023-05-10T05:59:05.293Z,2978.00
2023-05-10T06:00:05.292Z,2923.00
2023-05-10T06:01:05.329Z,3085.00
2023-05-10T06:02:05.412Z,2981.00
2023-05-10T06:03:05.438Z,3090.00
2023-05-10T06:04:05.515Z,2951.00
2023-05-10T06:05:05.438Z,2911.00
2023-05-10T06:06:05.485Z,2807.00
2023-05-10T06:07:05.527Z,2890.00
2023-05-10T06:08:05.596Z,3035.00
2023-05-10T06:09:05.587Z,3009.00
2023-05-10T06:10:05.640Z,2975.00
2023-05-10T06:11:05.645Z,2944.00
2023-05-10T06:12:05.695Z,2933.00
2023-05-10T06:13:05.758Z,2939.00
2023-05-10T06:14:05.752Z,2898.00
2023-05-10T06:15:05.848Z,2822.00
2023-05-10T06:16:05.819Z,2799.00
2023-05-10T06:17:05.857Z,2799.00
2023-05-10T06:18:06.016Z,2831.00
2023-05-10T06:19:05.900Z,2818.00
2023-05-10T06:20:06.354Z,2813.00
2023-05-10T06:21:05.932Z,2813.00
2023-05-10T06:22:05.950Z,2816.00
2023-05-10T06:23:05.961Z,2821.00
2023-05-10T06:24:06.020Z,2826.00
2023-05-10T06:25:06.064Z,2939.00
2023-05-10T06:26:06.123Z,3050.00
2023-05-10T06:27:06.213Z,3207.00
2023-05-10T06:28:06.262Z,3189.00
2023-05-10T06:29:06.304Z,3097.00
2023-05-10T06:30:12.791Z,3097.00
2023-05-10T06:31:07.392Z,3098.00
2023-05-10T06:32:06.380Z,3098.00
2023-05-10T06:33:06.458Z,3055.00
2023-05-10T06:34:06.415Z,3069.00
2023-05-10T06:35:06.873Z,3121.00
2023-05-10T06:36:06.480Z,3205.00
2023-05-10T06:37:06.567Z,3143.00
2023-05-10T06:38:06.574Z,3138.00
2023-05-10T06:39:06.639Z,3139.00
2023-05-10T06:40:06.839Z,2822.00
2023-05-10T06:41:06.728Z,2587.00
2023-05-10T06:42:06.760Z,2332.00
2023-05-10T06:43:06.764Z,2153.00
2023-05-10T06:44:06.821Z,2121.00
2023-05-10T06:45:06.871Z,2113.00
2023-05-10T06:46:06.951Z,2013.00
2023-05-10T06:47:06.898Z,2067.00
2023-05-10T06:48:06.947Z,2123.00
2023-05-10T06:49:06.914Z,2113.00
2023-05-10T06:50:06.935Z,2036.00
2023-05-10T06:51:06.938Z,1979.00
2023-05-10T06:52:06.927Z,1961.00
2023-05-10T06:53:06.937Z,1970.00
2023-05-10T06:54:06.965Z,1909.00
2023-05-10T06:55:06.955Z,1932.00
2023-05-10T06:56:06.948Z,1905.00
2023-05-10T06:57:10.978Z,1880.00
2023-05-10T06:58:07.984Z,1881.00
2023-05-10T06:59:07.057Z,1885.00
2023-05-10T07:00:07.059Z,1858.00
2023-05-10T07:01:07.019Z,1875.00
2023-05-10T07:02:06.991Z,1834.00
2023-05-10T07:03:06.978Z,1851.00
2023-05-10T07:04:06.946Z,1833.00
2023-05-10T07:05:06.952Z,1815.00
2023-05-10T07:06:07.175Z,1829.00
2023-05-10T07:07:06.936Z,1843.00
2023-05-10T07:08:06.897Z,1848.00
2023-05-10T07:09:06.912Z,1966.00
2023-05-10T07:10:06.898Z,2056.00
2023-05-10T07:11:06.890Z,2119.00
2023-05-10T07:12:08.223Z,2207.00
2023-05-10T07:13:06.991Z,2307.00
2023-05-10T07:14:06.857Z,2370.00
2023-05-10T07:15:06.892Z,2379.00
2023-05-10T07:16:06.900Z,2408.00
2023-05-10T07:17:06.906Z,2424.00
2023-05-10T07:18:06.973Z,2428.00
2023-05-10T07:19:06.840Z,2458.00
2023-05-10T07:20:06.823Z,2484.00
2023-05-10T07:21:06.857Z,2487.00
2023-05-10T07:22:06.801Z,2477.00
2023-05-10T07:23:06.831Z,2512.00
2023-05-10T07:24:06.808Z,2531.00
2023-05-10T07:25:06.843Z,2539.00
2023-05-10T07:26:06.789Z,2547.00
2023-05-10T07:27:06.863Z,2555.00
2023-05-10T07:28:06.786Z,2529.00
2023-05-10T07:29:06.825Z,2455.00
2023-05-10T07:30:06.770Z,2439.00
2023-05-10T07:31:06.817Z,2398.00
2023-05-10T07:32:06.957Z,2410.00
2023-05-10T07:33:06.815Z,2481.00
2023-05-10T07:34:06.751Z,2477.00
2023-05-10T07:35:06.745Z,2474.00
2023-05-10T07:36:06.719Z,2513.00
2023-05-10T07:37:06.712Z,2545.00
2023-05-10T07:38:06.739Z,2546.00
2023-05-10T07:39:06.714Z,2555.00
2023-05-10T07:40:06.707Z,2503.00
2023-05-10T07:41:06.696Z,2504.00
2023-05-10T07:42:06.700Z,2536.00
2023-05-10T07:43:06.687Z,2552.00
2023-05-10T07:44:06.696Z,2570.00
2023-05-10T07:45:06.677Z,2534.00
2023-05-10T07:46:06.702Z,2563.00
2023-05-10T07:47:06.668Z,2429.00
2023-05-10T07:48:06.703Z,2295.00
2023-05-10T07:49:06.647Z,2334.00
2023-05-10T07:50:06.880Z,2395.00
2023-05-10T07:51:06.619Z,2378.00
2023-05-10T07:52:06.626Z,2301.00
2023-05-10T07:53:06.637Z,2399.00
2023-05-10T07:54:06.599Z,2414.00
2023-05-10T07:55:06.862Z,2427.00
2023-05-10T07:56:06.602Z,2334.00
2023-05-10T07:57:06.603Z,2354.00
2023-05-10T07:58:06.590Z,2363.00
2023-05-10T07:59:06.586Z,2360.00
2023-05-10T08:00:06.885Z,2380.00
2023-05-10T08:01:06.555Z,2350.00
2023-05-10T08:02:06.580Z,2330.00
2023-05-10T08:03:06.737Z,2283.00
2023-05-10T08:04:06.654Z,2237.00
2023-05-10T08:05:06.534Z,2193.00
2023-05-10T08:06:06.671Z,2204.00
2023-05-10T08:07:06.572Z,2221.00
2023-05-10T08:08:06.509Z,2146.00
2023-05-10T08:09:06.533Z,2155.00
2023-05-10T08:10:06.510Z,2191.00
2023-05-10T08:11:06.500Z,2098.00
2023-05-10T08:12:06.513Z,2152.00
2023-05-10T08:13:06.491Z,2211.00
2023-05-10T08:14:06.668Z,2273.00
2023-05-10T08:15:06.903Z,2312.00
2023-05-10T08:16:06.487Z,2330.00
2023-05-10T08:17:06.471Z,2385.00
2023-05-10T08:18:06.535Z,2556.00
2023-05-10T08:19:06.506Z,2678.00
2023-05-10T08:20:06.894Z,2628.00
2023-05-10T08:21:06.552Z,2561.00
2023-05-10T08:22:06.617Z,2561.00
2023-05-10T08:23:06.688Z,2572.00
2023-05-10T08:24:06.654Z,2626.00
2023-05-10T08:25:06.675Z,2642.00
2023-05-10T08:26:06.693Z,2649.00
2023-05-10T08:27:06.716Z,2695.00
2023-05-10T08:28:06.681Z,2744.00
2023-05-10T08:29:06.732Z,2752.00
2023-05-10T08:30:06.752Z,2794.00
2023-05-10T08:31:06.879Z,2825.00
2023-05-10T08:32:06.813Z,2795.00
2023-05-10T08:33:06.797Z,2846.00
2023-05-10T08:34:06.793Z,2892.00
2023-05-10T08:35:06.859Z,2818.00
2023-05-10T08:36:06.897Z,2705.00
2023-05-10T08:37:06.943Z,2683.00
2023-05-10T08:38:06.980Z,2665.00
2023-05-10T08:39:13.548Z,2686.00
2023-05-10T08:40:08.669Z,2688.00
2023-05-10T08:41:07.237Z,2691.00
2023-05-10T08:42:07.187Z,2692.00
2023-05-10T08:43:07.806Z,2628.00
2023-05-10T08:44:07.132Z,2423.00
2023-05-10T08:45:07.392Z,2394.00
2023-05-10T08:46:07.044Z,2347.00
2023-05-10T08:47:07.110Z,2300.00
2023-05-10T08:48:07.074Z,2256.00
2023-05-10T08:49:07.027Z,2167.00
2023-05-10T08:50:07.003Z,2058.00
2023-05-10T08:51:07.046Z,1958.00
2023-05-10T08:52:07.089Z,1938.00
2023-05-10T08:53:07.150Z,1880.00
2023-05-10T08:54:07.212Z,1784.00
2023-05-10T08:55:07.305Z,1751.00
2023-05-10T08:56:07.277Z,1789.00
2023-05-10T08:57:07.326Z,1763.00
2023-05-10T08:58:07.402Z,1799.00
2023-05-10T08:59:07.381Z,1871.00
2023-05-10T09:00:07.435Z,1933.00
2023-05-10T09:01:07.589Z,1931.00
2023-05-10T09:02:07.538Z,1937.00
2023-05-10T09:03:07.614Z,1909.00
2023-05-10T09:04:07.701Z,1885.00
2023-05-10T09:05:07.620Z,1789.00
2023-05-10T09:06:07.586Z,1791.00
2023-05-10T09:07:07.635Z,1800.00
2023-05-10T09:08:07.689Z,1894.00
2023-05-10T09:09:07.651Z,1913.00
2023-05-10T09:10:07.905Z,1942.00
2023-05-10T09:11:07.758Z,1973.00
2023-05-10T09:12:07.773Z,1967.00
2023-05-10T09:13:07.923Z,2019.00
2023-05-10T09:14:07.844Z,1975.00
2023-05-10T09:15:07.922Z,1972.00
2023-05-10T09:16:20.263Z,1952.00
2023-05-10T09:17:08.958Z,1950.00
2023-05-10T09:18:07.928Z,1899.00
2023-05-10T09:19:08.024Z,1888.00
2023-05-10T09:20:07.894Z,1913.00
2023-05-10T09:21:07.926Z,1937.00
2023-05-10T09:22:07.895Z,1882.00
2023-05-10T09:23:07.887Z,1815.00
2023-05-10T09:24:07.916Z,1800.00
2023-05-10T09:25:08.419Z,1704.00
2023-05-10T09:26:07.933Z,1665.00
2023-05-10T09:27:07.999Z,1644.00
2023-05-10T09:28:07.835Z,1584.00
2023-05-10T09:29:07.835Z,1575.00
2023-05-10T09:30:07.928Z,1692.00
2023-05-10T09:31:07.946Z,1757.00
2023-05-10T09:32:07.818Z,1745.00
2023-05-10T09:33:07.884Z,1849.00
2023-05-10T09:34:07.870Z,1993.00
2023-05-10T09:35:07.911Z,2046.00
2023-05-10T09:36:08.415Z,2034.00
2023-05-10T09:37:07.921Z,2005.00
2023-05-10T09:38:07.963Z,2038.00
2023-05-10T09:39:08.026Z,2099.00
2023-05-10T09:40:08.005Z,2181.00
2023-05-10T09:41:08.040Z,2251.00
2023-05-10T09:42:08.090Z,2302.00
2023-05-10T09:43:08.160Z,2362.00
2023-05-10T09:44:08.174Z,2419.00
2023-05-10T09:45:08.224Z,2385.00
2023-05-10T09:46:08.445Z,2395.00
2023-05-10T09:47:08.369Z,2433.00
2023-05-10T09:48:08.372Z,2488.00
2023-05-10T09:49:08.362Z,2541.00
2023-05-10T09:50:08.402Z,2574.00
2023-05-10T09:51:08.453Z,2579.00
2023-05-10T09:52:08.489Z,2584.00
2023-05-10T09:53:08.490Z,2577.00
2023-05-10T09:54:08.560Z,2592.00
2023-05-10T09:55:08.625Z,2594.00
2023-05-10T09:56:08.657Z,2600.00
2023-05-10T09:57:08.725Z,2617.00
2023-05-10T09:58:08.772Z,2641.00
2023-05-10T09:59:08.845Z,2638.00
2023-05-10T10:00:08.864Z,2619.00
2023-05-10T10:01:08.974Z,2629.00
2023-05-10T10:02:08.965Z,2608.00
2023-05-10T10:03:09.036Z,2590.00
2023-05-10T10:04:09.075Z,2564.00
2023-05-10T10:05:09.231Z,2539.00
2023-05-10T10:06:18.772Z,2533.00
2023-05-10T10:07:10.148Z,2534.00
2023-05-10T10:08:09.141Z,2538.00
2023-05-10T10:09:09.126Z,2521.00
2023-05-10T10:10:09.126Z,2487.00
2023-05-10T10:11:09.128Z,2464.00
2023-05-10T10:12:09.098Z,2445.00
2023-05-10T10:13:09.123Z,2450.00
2023-05-10T10:14:09.115Z,2486.00
2023-05-10T10:15:09.083Z,2447.00
2023-05-10T10:16:09.488Z,2420.00
2023-05-10T10:17:09.273Z,2366.00
2023-05-10T10:18:09.264Z,2273.00
2023-05-10T10:19:09.175Z,2186.00
2023-05-10T10:20:11.715Z,1943.00
2023-05-10T10:21:09.443Z,1877.00
2023-05-10T10:22:09.221Z,1878.00
2023-05-10T10:23:09.216Z,1869.00
2023-05-10T10:24:09.188Z,1786.00
2023-05-10T10:25:09.209Z,1765.00
2023-05-10T10:26:09.482Z,1693.00
2023-05-10T10:27:09.161Z,1498.00
2023-05-10T10:28:09.153Z,1381.00
2023-05-10T10:29:09.171Z,1227.00
2023-05-10T10:30:09.155Z,1127.00
2023-05-10T10:31:09.190Z,985.00
2023-05-10T10:32:09.159Z,1013.00
2023-05-10T10:33:20.203Z,906.00
2023-05-10T10:34:10.140Z,819.00
2023-05-10T10:35:09.133Z,742.00
2023-05-10T10:36:09.485Z,711.00
2023-05-10T10:37:09.103Z,583.00
2023-05-10T10:38:09.091Z,532.00
2023-05-10T10:39:09.097Z,604.00
2023-05-10T10:40:09.116Z,706.00
2023-05-10T10:41:09.074Z,827.00
2023-05-10T10:42:09.083Z,933.00
2023-05-10T10:43:09.098Z,1097.00
2023-05-10T10:44:09.064Z,1182.00
2023-05-10T10:45:09.091Z,1189.00
2023-05-10T10:46:09.110Z,1227.00
2023-05-10T10:47:09.231Z,1304.00
2023-05-10T10:48:09.259Z,1337.00
2023-05-10T10:49:09.180Z,1394.00
2023-05-10T10:50:09.179Z,1396.00
2023-05-10T10:51:10.691Z,1408.00
2023-05-10T10:52:09.199Z,1455.00
2023-05-10T10:53:09.260Z,1456.00
2023-05-10T10:54:09.225Z,1441.00
2023-05-10T10:55:09.320Z,1452.00
2023-05-10T10:56:09.207Z,1486.00
2023-05-10T10:57:09.177Z,1504.00
2023-05-10T10:58:09.179Z,1473.00
2023-05-10T10:59:09.174Z,1464.00
2023-05-10T11:00:09.161Z,1492.00
2023-05-10T11:01:09.199Z,1482.00
2023-05-10T11:02:09.142Z,1459.00
2023-05-10T11:03:09.166Z,1504.00
2023-05-10T11:04:09.189Z,1706.00
2023-05-10T11:05:09.100Z,1754.00
2023-05-10T11:06:09.122Z,1773.00
2023-05-10T11:07:09.100Z,1629.00
2023-05-10T11:08:09.104Z,1632.00
2023-05-10T11:09:09.089Z,1630.00
2023-05-10T11:10:09.071Z,1560.00
2023-05-10T11:11:09.078Z,1566.00
2023-05-10T11:12:09.059Z,1552.00
2023-05-10T11:13:09.078Z,1610.00
2023-05-10T11:14:09.066Z,1650.00
2023-05-10T11:15:09.073Z,1689.00
2023-05-10T11:16:09.515Z,1731.00
2023-05-10T11:17:09.105Z,1816.00
2023-05-10T11:18:09.093Z,1872.00
2023-05-10T11:19:09.132Z,1909.00
2023-05-10T11:20:09.019Z,1938.00
2023-05-10T11:21:09.007Z,1923.00
2023-05-10T11:22:09.009Z,1929.00
2023-05-10T11:23:09.005Z,1916.00
2023-05-10T11:24:08.979Z,1944.00
2023-05-10T11:25:08.982Z,1939.00
2023-05-10T11:26:08.962Z,1919.00
2023-05-10T11:27:08.955Z,1937.00
2023-05-10T11:28:08.954Z,1949.00
2023-05-10T11:29:08.958Z,1954.00
2023-05-10T11:30:08.981Z,1940.00
2023-05-10T11:31:08.953Z,1933.00
2023-05-10T11:32:08.920Z,1939.00
2023-05-10T11:33:08.956Z,1940.00
2023-05-10T11:34:08.942Z,1938.00
2023-05-10T11:35:08.914Z,1926.00
2023-05-10T11:36:08.897Z,1928.00
2023-05-10T11:37:08.887Z,1917.00
2023-05-10T11:38:08.902Z,1914.00
2023-05-10T11:39:08.897Z,1937.00
2023-05-10T11:40:08.888Z,1922.00
2023-05-10T11:41:08.883Z,1926.00
2023-05-10T11:42:08.882Z,1915.00
2023-05-10T11:43:08.898Z,1912.00
2023-05-10T11:44:08.901Z,1909.00
2023-05-10T11:45:08.942Z,1895.00
2023-05-10T11:46:09.004Z,1876.00
2023-05-10T11:47:08.987Z,1870.00
2023-05-10T11:48:09.080Z,1845.00
2023-05-10T11:49:09.038Z,1852.00
2023-05-10T11:50:09.072Z,1843.00
2023-05-10T11:51:09.153Z,1860.00
2023-05-10T11:52:09.146Z,1825.00
2023-05-10T11:53:09.168Z,1846.00
2023-05-10T11:54:09.189Z,1817.00
2023-05-10T11:55:09.236Z,1825.00
2023-05-10T11:56:09.275Z,1781.00
2023-05-10T11:57:09.333Z,1777.00
2023-05-10T11:58:09.407Z,1771.00
2023-05-10T11:59:09.499Z,1790.00
2023-05-10T12:00:09.446Z,1740.00
2023-05-10T12:01:09.467Z,1751.00
2023-05-10T12:02:09.499Z,1757.00
2023-05-10T12:03:09.606Z,1729.00
2023-05-10T12:04:09.803Z,1707.00
2023-05-10T12:05:09.679Z,1723.00
2023-05-10T12:06:09.981Z,1695.00
2023-05-10T12:07:09.685Z,1696.00